Terminal Aerodrome Forecast
Issued by NWS

Home | Current Version | Previous Version | Graphics & Text | Print | Product List | Glossary On
Versions: 1 2 3 4 5 6 7 8 9 10 11 12 13
000
FTUS43 KICT 191720
TAFCNU
TAF
KCNU 191720Z 1918/2018 25005KT P6SM VCSH BKN100
     FM192000 26007KT P6SM BKN100
     FM192300 26007KT P6SM SCT100
     FM200500 19004KT P6SM SKC
     FM201600 23008KT P6SM FEW120=

USA.gov is the U.S. government's official web portal to all federal, state and local government web resources and services.